CheckWX is a tool to help pilots better visualize weather data.  It is not intended as a substitute for an official pre-flight weather briefing.

18:13:21 UTC

FBKE METAR
Kasane Airport
Kasane, Botswana
Current

1 hour ago

FBKE 261700Z 04001KT CAVOK 17/07 Q1018
Observed
May-26 @ 17:00 UTC
Wind
  • 040° at 1 KTS
Visibility
10,000+ meters
Flight Rules
VFR
Cloud Levels
  • Clear skies
Temperature
17°C / 63°F
Dewpoint
C / 45°F
Humidity
52%
Altimeter
30.06" Hg
Pressure
1017.92 hPa
Previous

2 hours ago

FBKE 261600Z 35003KT CAVOK 21/07 Q1017
Observed
May-26 @ 16:00 UTC
Wind
  • 350° at 3 KTS
Visibility
10,000+ meters
Flight Rules
VFR
Cloud Levels
  • Clear skies
Temperature
21°C / 70°F
Dewpoint
C / 45°F
Humidity
40%
Altimeter
30.03" Hg
Pressure
1016.92 hPa
Previous

3 hours ago

FBKE 261500Z 34005KT 320V020 CAVOK 27/06 Q1017
Observed
May-26 @ 15:00 UTC
Wind
  • 340° at 5 KTS
Visibility
10,000+ meters
Flight Rules
VFR
Cloud Levels
  • Clear skies
Temperature
27°C / 81°F
Dewpoint
C / 43°F
Humidity
26%
Altimeter
30.03" Hg
Pressure
1016.92 hPa